sensor_id;sensor_type;location;lat;lon;timestamp;P1;durP1;ratioP1;P2;durP2;ratioP2
74523;SDS011;63074;44.696;10.358;2022-12-18T00:01:16;49.42;;;26.67;;
74523;SDS011;63074;44.696;10.358;2022-12-18T00:03:53;44.00;;;26.83;;
74523;SDS011;63074;44.696;10.358;2022-12-18T00:06:20;47.58;;;28.75;;
74523;SDS011;63074;44.696;10.358;2022-12-18T00:08:48;43.88;;;27.52;;
74523;SDS011;63074;44.696;10.358;2022-12-18T00:11:16;45.90;;;26.60;;
74523;SDS011;63074;44.696;10.358;2022-12-18T00:13:44;46.42;;;27.10;;
74523;SDS011;63074;44.696;10.358;2022-12-18T00:16:12;44.45;;;27.83;;
74523;SDS011;63074;44.696;10.358;2022-12-18T00:18:40;46.40;;;28.67;;
74523;SDS011;63074;44.696;10.358;2022-12-18T00:21:07;48.92;;;27.42;;
74523;SDS011;63074;44.696;10.358;2022-12-18T00:23:35;45.67;;;27.02;;
74523;SDS011;63074;44.696;10.358;2022-12-18T00:26:03;47.08;;;25.88;;
74523;SDS011;63074;44.696;10.358;2022-12-18T00:28:31;50.45;;;28.65;;
74523;SDS011;63074;44.696;10.358;2022-12-18T00:31:05;45.58;;;28.08;;
74523;SDS011;63074;44.696;10.358;2022-12-18T00:33:33;45.25;;;26.77;;
74523;SDS011;63074;44.696;10.358;2022-12-18T00:36:03;50.63;;;27.95;;
74523;SDS011;63074;44.696;10.358;2022-12-18T00:38:39;45.28;;;26.02;;
74523;SDS011;63074;44.696;10.358;2022-12-18T00:41:06;44.72;;;27.48;;
74523;SDS011;63074;44.696;10.358;2022-12-18T00:43:35;50.65;;;28.88;;
74523;SDS011;63074;44.696;10.358;2022-12-18T00:46:03;44.67;;;26.83;;
74523;SDS011;63074;44.696;10.358;2022-12-18T00:48:30;45.90;;;29.58;;
74523;SDS011;63074;44.696;10.358;2022-12-18T00:50:56;52.10;;;27.50;;
74523;SDS011;63074;44.696;10.358;2022-12-18T00:53:22;44.38;;;27.85;;
74523;SDS011;63074;44.696;10.358;2022-12-18T00:55:49;48.25;;;28.35;;
74523;SDS011;63074;44.696;10.358;2022-12-18T00:58:15;48.80;;;26.40;;
74523;SDS011;63074;44.696;10.358;2022-12-18T01:00:42;45.10;;;27.25;;
74523;SDS011;63074;44.696;10.358;2022-12-18T01:03:09;43.17;;;26.50;;
74523;SDS011;63074;44.696;10.358;2022-12-18T01:05:38;47.22;;;27.88;;
74523;SDS011;63074;44.696;10.358;2022-12-18T01:08:06;39.53;;;25.40;;
74523;SDS011;63074;44.696;10.358;2022-12-18T01:10:32;45.83;;;26.83;;
74523;SDS011;63074;44.696;10.358;2022-12-18T01:12:58;45.90;;;26.10;;
74523;SDS011;63074;44.696;10.358;2022-12-18T01:15:24;42.72;;;25.20;;
74523;SDS011;63074;44.696;10.358;2022-12-18T01:17:52;49.20;;;28.98;;
74523;SDS011;63074;44.696;10.358;2022-12-18T01:20:18;45.05;;;25.92;;
74523;SDS011;63074;44.696;10.358;2022-12-18T01:22:45;43.95;;;25.35;;
74523;SDS011;63074;44.696;10.358;2022-12-18T01:25:11;48.67;;;27.52;;
74523;SDS011;63074;44.696;10.358;2022-12-18T01:27:37;47.97;;;28.42;;
74523;SDS011;63074;44.696;10.358;2022-12-18T01:30:04;48.63;;;28.35;;
74523;SDS011;63074;44.696;10.358;2022-12-18T01:32:31;46.10;;;28.30;;
74523;SDS011;63074;44.696;10.358;2022-12-18T01:34:57;46.78;;;27.67;;
74523;SDS011;63074;44.696;10.358;2022-12-18T01:37:24;44.78;;;26.10;;
74523;SDS011;63074;44.696;10.358;2022-12-18T01:39:50;47.25;;;27.83;;
74523;SDS011;63074;44.696;10.358;2022-12-18T01:42:19;45.53;;;26.58;;
74523;SDS011;63074;44.696;10.358;2022-12-18T01:49:47;44.65;;;25.50;;
74523;SDS011;63074;44.696;10.358;2022-12-18T01:52:13;46.72;;;26.70;;
74523;SDS011;63074;44.696;10.358;2022-12-18T01:54:40;43.63;;;26.42;;
74523;SDS011;63074;44.696;10.358;2022-12-18T01:57:07;54.28;;;28.42;;
74523;SDS011;63074;44.696;10.358;2022-12-18T01:59:33;49.22;;;28.27;;
74523;SDS011;63074;44.696;10.358;2022-12-18T02:02:01;55.38;;;29.55;;
74523;SDS011;63074;44.696;10.358;2022-12-18T02:04:28;52.95;;;29.38;;
74523;SDS011;63074;44.696;10.358;2022-12-18T02:07:02;51.78;;;28.20;;
74523;SDS011;63074;44.696;10.358;2022-12-18T02:09:32;51.45;;;28.63;;
74523;SDS011;63074;44.696;10.358;2022-12-18T02:12:10;48.40;;;27.27;;
74523;SDS011;63074;44.696;10.358;2022-12-18T02:15:07;51.40;;;28.75;;
74523;SDS011;63074;44.696;10.358;2022-12-18T02:17:39;47.10;;;26.70;;
74523;SDS011;63074;44.696;10.358;2022-12-18T02:20:43;52.25;;;27.30;;
74523;SDS011;63074;44.696;10.358;2022-12-18T02:28:40;50.67;;;29.00;;
74523;SDS011;63074;44.696;10.358;2022-12-18T02:31:14;51.92;;;30.63;;
74523;SDS011;63074;44.696;10.358;2022-12-18T02:33:44;49.78;;;27.65;;
74523;SDS011;63074;44.696;10.358;2022-12-18T02:36:12;47.00;;;26.33;;
74523;SDS011;63074;44.696;10.358;2022-12-18T02:38:41;47.88;;;27.55;;
74523;SDS011;63074;44.696;10.358;2022-12-18T02:41:09;48.42;;;27.02;;
74523;SDS011;63074;44.696;10.358;2022-12-18T02:43:37;46.83;;;26.08;;
74523;SDS011;63074;44.696;10.358;2022-12-18T02:49:15;44.60;;;25.75;;
74523;SDS011;63074;44.696;10.358;2022-12-18T02:52:09;43.75;;;26.45;;
74523;SDS011;63074;44.696;10.358;2022-12-18T03:00:24;42.25;;;23.15;;
74523;SDS011;63074;44.696;10.358;2022-12-18T03:03:05;46.90;;;25.40;;
74523;SDS011;63074;44.696;10.358;2022-12-18T03:05:51;40.00;;;23.17;;
74523;SDS011;63074;44.696;10.358;2022-12-18T03:08:24;42.13;;;24.00;;
74523;SDS011;63074;44.696;10.358;2022-12-18T03:11:02;41.10;;;24.10;;
74523;SDS011;63074;44.696;10.358;2022-12-18T03:13:33;40.78;;;23.85;;
74523;SDS011;63074;44.696;10.358;2022-12-18T03:16:08;45.03;;;23.77;;
74523;SDS011;63074;44.696;10.358;2022-12-18T03:21:08;46.38;;;26.20;;
74523;SDS011;63074;44.696;10.358;2022-12-18T03:23:39;46.85;;;26.92;;
74523;SDS011;63074;44.696;10.358;2022-12-18T03:26:10;49.45;;;25.98;;
74523;SDS011;63074;44.696;10.358;2022-12-18T03:28:42;45.33;;;26.30;;
74523;SDS011;63074;44.696;10.358;2022-12-18T03:31:16;43.75;;;25.67;;
74523;SDS011;63074;44.696;10.358;2022-12-18T03:33:52;48.40;;;26.63;;
74523;SDS011;63074;44.696;10.358;2022-12-18T03:36:20;45.40;;;25.48;;
74523;SDS011;63074;44.696;10.358;2022-12-18T03:38:47;52.05;;;27.17;;
74523;SDS011;63074;44.696;10.358;2022-12-18T03:49:29;44.08;;;26.23;;
74523;SDS011;63074;44.696;10.358;2022-12-18T03:52:20;46.25;;;26.15;;
74523;SDS011;63074;44.696;10.358;2022-12-18T03:57:22;44.97;;;24.17;;
74523;SDS011;63074;44.696;10.358;2022-12-18T03:59:57;46.22;;;25.58;;
74523;SDS011;63074;44.696;10.358;2022-12-18T04:02:38;45.67;;;26.52;;
74523;SDS011;63074;44.696;10.358;2022-12-18T04:05:17;44.55;;;25.20;;
74523;SDS011;63074;44.696;10.358;2022-12-18T04:07:47;40.10;;;23.83;;
74523;SDS011;63074;44.696;10.358;2022-12-18T04:10:16;36.65;;;22.50;;
74523;SDS011;63074;44.696;10.358;2022-12-18T04:12:43;42.05;;;24.42;;
74523;SDS011;63074;44.696;10.358;2022-12-18T04:15:10;39.40;;;22.00;;
74523;SDS011;63074;44.696;10.358;2022-12-18T04:17:37;36.10;;;21.17;;
74523;SDS011;63074;44.696;10.358;2022-12-18T04:20:07;37.42;;;20.73;;
74523;SDS011;63074;44.696;10.358;2022-12-18T04:22:33;33.78;;;19.98;;
74523;SDS011;63074;44.696;10.358;2022-12-18T04:25:00;32.83;;;20.60;;
74523;SDS011;63074;44.696;10.358;2022-12-18T04:27:26;33.15;;;20.30;;
74523;SDS011;63074;44.696;10.358;2022-12-18T04:29:52;38.22;;;21.70;;
74523;SDS011;63074;44.696;10.358;2022-12-18T04:32:19;39.53;;;23.10;;
74523;SDS011;63074;44.696;10.358;2022-12-18T04:34:45;41.47;;;24.02;;
74523;SDS011;63074;44.696;10.358;2022-12-18T04:37:11;38.00;;;22.58;;
74523;SDS011;63074;44.696;10.358;2022-12-18T04:39:37;34.45;;;21.52;;
74523;SDS011;63074;44.696;10.358;2022-12-18T04:42:04;33.45;;;21.42;;
74523;SDS011;63074;44.696;10.358;2022-12-18T04:44:30;33.42;;;20.55;;
74523;SDS011;63074;44.696;10.358;2022-12-18T04:46:56;31.55;;;19.55;;
74523;SDS011;63074;44.696;10.358;2022-12-18T04:49:22;34.70;;;20.98;;
74523;SDS011;63074;44.696;10.358;2022-12-18T04:51:49;36.65;;;21.77;;
74523;SDS011;63074;44.696;10.358;2022-12-18T04:54:15;35.03;;;22.42;;
74523;SDS011;63074;44.696;10.358;2022-12-18T04:56:44;38.13;;;22.27;;
74523;SDS011;63074;44.696;10.358;2022-12-18T04:59:10;36.90;;;22.50;;
74523;SDS011;63074;44.696;10.358;2022-12-18T05:01:36;37.65;;;22.50;;
74523;SDS011;63074;44.696;10.358;2022-12-18T05:04:03;34.72;;;22.33;;
74523;SDS011;63074;44.696;10.358;2022-12-18T05:06:29;38.22;;;22.02;;
74523;SDS011;63074;44.696;10.358;2022-12-18T05:08:55;37.92;;;21.92;;
74523;SDS011;63074;44.696;10.358;2022-12-18T05:11:21;37.40;;;21.92;;
74523;SDS011;63074;44.696;10.358;2022-12-18T05:13:47;38.08;;;21.30;;
74523;SDS011;63074;44.696;10.358;2022-12-18T05:16:14;36.47;;;22.45;;
74523;SDS011;63074;44.696;10.358;2022-12-18T05:18:40;40.45;;;21.65;;
74523;SDS011;63074;44.696;10.358;2022-12-18T05:21:06;37.97;;;22.63;;
74523;SDS011;63074;44.696;10.358;2022-12-18T05:23:33;40.75;;;23.83;;
74523;SDS011;63074;44.696;10.358;2022-12-18T05:26:01;40.97;;;23.38;;
74523;SDS011;63074;44.696;10.358;2022-12-18T05:28:29;37.92;;;21.85;;
74523;SDS011;63074;44.696;10.358;2022-12-18T05:30:57;35.60;;;20.02;;
74523;SDS011;63074;44.696;10.358;2022-12-18T05:33:25;39.10;;;21.40;;
74523;SDS011;63074;44.696;10.358;2022-12-18T05:35:55;36.28;;;22.17;;
74523;SDS011;63074;44.696;10.358;2022-12-18T05:38:23;35.13;;;21.10;;
74523;SDS011;63074;44.696;10.358;2022-12-18T05:40:51;40.28;;;23.90;;
74523;SDS011;63074;44.696;10.358;2022-12-18T05:43:19;42.03;;;24.60;;
74523;SDS011;63074;44.696;10.358;2022-12-18T05:45:49;38.97;;;22.33;;
74523;SDS011;63074;44.696;10.358;2022-12-18T05:48:16;39.67;;;22.95;;
74523;SDS011;63074;44.696;10.358;2022-12-18T05:50:43;41.63;;;26.20;;
74523;SDS011;63074;44.696;10.358;2022-12-18T05:53:11;40.22;;;23.23;;
74523;SDS011;63074;44.696;10.358;2022-12-18T05:55:39;42.33;;;24.98;;
74523;SDS011;63074;44.696;10.358;2022-12-18T05:58:07;41.83;;;23.48;;
74523;SDS011;63074;44.696;10.358;2022-12-18T06:00:35;42.88;;;24.83;;
74523;SDS011;63074;44.696;10.358;2022-12-18T06:03:06;40.65;;;23.42;;
74523;SDS011;63074;44.696;10.358;2022-12-18T06:05:37;42.47;;;24.15;;
74523;SDS011;63074;44.696;10.358;2022-12-18T06:08:05;40.72;;;23.17;;
74523;SDS011;63074;44.696;10.358;2022-12-18T06:10:31;38.38;;;23.05;;
74523;SDS011;63074;44.696;10.358;2022-12-18T06:12:58;39.28;;;21.98;;
74523;SDS011;63074;44.696;10.358;2022-12-18T06:15:24;39.47;;;22.77;;
74523;SDS011;63074;44.696;10.358;2022-12-18T06:17:51;37.45;;;22.33;;
74523;SDS011;63074;44.696;10.358;2022-12-18T06:20:17;38.63;;;22.98;;
74523;SDS011;63074;44.696;10.358;2022-12-18T06:22:43;38.03;;;22.75;;
74523;SDS011;63074;44.696;10.358;2022-12-18T06:25:10;37.97;;;20.83;;
74523;SDS011;63074;44.696;10.358;2022-12-18T06:27:36;38.85;;;21.20;;
74523;SDS011;63074;44.696;10.358;2022-12-18T06:30:03;37.28;;;21.80;;
74523;SDS011;63074;44.696;10.358;2022-12-18T06:32:29;36.58;;;21.58;;
74523;SDS011;63074;44.696;10.358;2022-12-18T06:34:56;42.25;;;22.10;;
74523;SDS011;63074;44.696;10.358;2022-12-18T06:37:22;38.95;;;23.27;;
74523;SDS011;63074;44.696;10.358;2022-12-18T06:39:52;43.03;;;23.60;;
74523;SDS011;63074;44.696;10.358;2022-12-18T06:42:21;44.85;;;22.02;;
74523;SDS011;63074;44.696;10.358;2022-12-18T06:44:48;39.95;;;21.38;;
74523;SDS011;63074;44.696;10.358;2022-12-18T06:47:14;47.35;;;20.70;;
74523;SDS011;63074;44.696;10.358;2022-12-18T06:49:41;45.50;;;21.92;;
74523;SDS011;63074;44.696;10.358;2022-12-18T06:52:08;47.45;;;22.38;;
74523;SDS011;63074;44.696;10.358;2022-12-18T06:54:34;51.45;;;21.88;;
74523;SDS011;63074;44.696;10.358;2022-12-18T06:57:00;41.10;;;22.08;;
74523;SDS011;63074;44.696;10.358;2022-12-18T06:59:26;43.22;;;24.23;;
74523;SDS011;63074;44.696;10.358;2022-12-18T07:01:52;62.47;;;22.95;;
74523;SDS011;63074;44.696;10.358;2022-12-18T07:04:19;84.15;;;24.98;;
74523;SDS011;63074;44.696;10.358;2022-12-18T07:06:45;60.25;;;23.52;;
74523;SDS011;63074;44.696;10.358;2022-12-18T07:09:11;56.53;;;22.55;;
74523;SDS011;63074;44.696;10.358;2022-12-18T07:11:37;50.35;;;21.58;;
74523;SDS011;63074;44.696;10.358;2022-12-18T07:14:04;48.05;;;20.85;;
74523;SDS011;63074;44.696;10.358;2022-12-18T07:16:30;51.35;;;21.92;;
74523;SDS011;63074;44.696;10.358;2022-12-18T07:18:56;49.58;;;21.73;;
74523;SDS011;63074;44.696;10.358;2022-12-18T07:21:23;43.83;;;21.48;;
74523;SDS011;63074;44.696;10.358;2022-12-18T07:23:50;40.03;;;21.05;;
74523;SDS011;63074;44.696;10.358;2022-12-18T07:26:17;52.38;;;22.33;;
74523;SDS011;63074;44.696;10.358;2022-12-18T07:28:44;47.10;;;21.95;;
74523;SDS011;63074;44.696;10.358;2022-12-18T07:31:12;50.90;;;22.15;;
74523;SDS011;63074;44.696;10.358;2022-12-18T07:33:43;60.42;;;22.90;;
74523;SDS011;63074;44.696;10.358;2022-12-18T07:36:10;43.80;;;20.73;;
74523;SDS011;63074;44.696;10.358;2022-12-18T07:38:37;42.83;;;21.45;;
74523;SDS011;63074;44.696;10.358;2022-12-18T07:41:11;44.00;;;24.27;;
74523;SDS011;63074;44.696;10.358;2022-12-18T07:43:38;37.38;;;20.63;;
74523;SDS011;63074;44.696;10.358;2022-12-18T07:46:06;37.92;;;20.65;;
74523;SDS011;63074;44.696;10.358;2022-12-18T07:48:33;33.97;;;19.33;;
74523;SDS011;63074;44.696;10.358;2022-12-18T07:51:03;43.28;;;21.30;;
74523;SDS011;63074;44.696;10.358;2022-12-18T07:53:31;44.85;;;21.38;;
74523;SDS011;63074;44.696;10.358;2022-12-18T07:55:59;34.80;;;18.92;;
74523;SDS011;63074;44.696;10.358;2022-12-18T07:58:28;35.88;;;19.05;;
74523;SDS011;63074;44.696;10.358;2022-12-18T08:01:01;39.25;;;21.30;;
74523;SDS011;63074;44.696;10.358;2022-12-18T08:03:32;37.85;;;19.50;;
74523;SDS011;63074;44.696;10.358;2022-12-18T08:05:59;36.58;;;20.10;;
74523;SDS011;63074;44.696;10.358;2022-12-18T08:08:27;42.45;;;20.73;;
74523;SDS011;63074;44.696;10.358;2022-12-18T08:10:53;40.70;;;20.80;;
74523;SDS011;63074;44.696;10.358;2022-12-18T08:13:19;40.47;;;20.77;;
74523;SDS011;63074;44.696;10.358;2022-12-18T08:15:46;35.00;;;18.67;;
74523;SDS011;63074;44.696;10.358;2022-12-18T08:18:20;42.47;;;19.40;;
74523;SDS011;63074;44.696;10.358;2022-12-18T08:20:46;35.45;;;19.08;;
74523;SDS011;63074;44.696;10.358;2022-12-18T08:23:12;37.67;;;20.58;;
74523;SDS011;63074;44.696;10.358;2022-12-18T08:25:38;39.22;;;21.85;;
74523;SDS011;63074;44.696;10.358;2022-12-18T08:28:05;42.35;;;19.73;;
74523;SDS011;63074;44.696;10.358;2022-12-18T08:30:31;39.80;;;20.92;;
74523;SDS011;63074;44.696;10.358;2022-12-18T08:32:57;38.65;;;20.38;;
74523;SDS011;63074;44.696;10.358;2022-12-18T08:35:23;38.30;;;20.08;;
74523;SDS011;63074;44.696;10.358;2022-12-18T08:37:49;39.90;;;19.58;;
74523;SDS011;63074;44.696;10.358;2022-12-18T08:40:16;43.58;;;19.88;;
74523;SDS011;63074;44.696;10.358;2022-12-18T08:42:42;39.22;;;19.83;;
74523;SDS011;63074;44.696;10.358;2022-12-18T08:45:43;38.03;;;20.95;;
74523;SDS011;63074;44.696;10.358;2022-12-18T08:48:10;40.92;;;19.67;;
74523;SDS011;63074;44.696;10.358;2022-12-18T08:50:36;39.83;;;20.08;;
74523;SDS011;63074;44.696;10.358;2022-12-18T08:53:02;42.67;;;20.45;;
74523;SDS011;63074;44.696;10.358;2022-12-18T08:55:28;43.45;;;20.60;;
74523;SDS011;63074;44.696;10.358;2022-12-18T08:57:54;39.00;;;19.75;;
74523;SDS011;63074;44.696;10.358;2022-12-18T09:00:20;42.72;;;19.40;;
74523;SDS011;63074;44.696;10.358;2022-12-18T09:02:47;45.70;;;21.05;;
74523;SDS011;63074;44.696;10.358;2022-12-18T09:05:13;38.00;;;19.90;;
74523;SDS011;63074;44.696;10.358;2022-12-18T09:07:39;43.08;;;22.45;;
74523;SDS011;63074;44.696;10.358;2022-12-18T09:10:06;45.55;;;21.13;;
74523;SDS011;63074;44.696;10.358;2022-12-18T09:12:32;34.47;;;17.02;;
74523;SDS011;63074;44.696;10.358;2022-12-18T09:14:58;37.05;;;19.33;;
74523;SDS011;63074;44.696;10.358;2022-12-18T09:17:25;41.38;;;22.48;;
74523;SDS011;63074;44.696;10.358;2022-12-18T09:19:51;39.88;;;20.83;;
74523;SDS011;63074;44.696;10.358;2022-12-18T09:22:17;39.22;;;20.95;;
74523;SDS011;63074;44.696;10.358;2022-12-18T09:24:43;39.55;;;19.38;;
74523;SDS011;63074;44.696;10.358;2022-12-18T09:27:09;40.03;;;20.17;;
74523;SDS011;63074;44.696;10.358;2022-12-18T09:29:36;39.95;;;19.08;;
74523;SDS011;63074;44.696;10.358;2022-12-18T09:32:02;39.72;;;20.27;;
74523;SDS011;63074;44.696;10.358;2022-12-18T09:34:28;40.55;;;20.40;;
74523;SDS011;63074;44.696;10.358;2022-12-18T09:36:54;35.50;;;18.70;;
74523;SDS011;63074;44.696;10.358;2022-12-18T09:39:20;39.03;;;19.45;;
74523;SDS011;63074;44.696;10.358;2022-12-18T09:41:50;35.85;;;18.77;;
74523;SDS011;63074;44.696;10.358;2022-12-18T09:46:54;36.38;;;19.15;;
74523;SDS011;63074;44.696;10.358;2022-12-18T09:49:25;41.25;;;20.13;;
74523;SDS011;63074;44.696;10.358;2022-12-18T09:51:59;41.97;;;21.13;;
74523;SDS011;63074;44.696;10.358;2022-12-18T09:54:53;37.58;;;19.88;;
74523;SDS011;63074;44.696;10.358;2022-12-18T09:57:28;38.22;;;20.27;;
74523;SDS011;63074;44.696;10.358;2022-12-18T09:59:59;39.83;;;19.92;;
74523;SDS011;63074;44.696;10.358;2022-12-18T10:02:34;38.97;;;21.58;;
74523;SDS011;63074;44.696;10.358;2022-12-18T10:05:04;35.80;;;19.88;;
74523;SDS011;63074;44.696;10.358;2022-12-18T10:10:35;38.78;;;20.67;;
74523;SDS011;63074;44.696;10.358;2022-12-18T10:19:29;38.45;;;20.02;;
74523;SDS011;63074;44.696;10.358;2022-12-18T10:27:14;39.15;;;19.33;;
74523;SDS011;63074;44.696;10.358;2022-12-18T10:29:43;37.17;;;18.40;;
74523;SDS011;63074;44.696;10.358;2022-12-18T10:32:17;41.33;;;20.27;;
74523;SDS011;63074;44.696;10.358;2022-12-18T10:34:46;38.22;;;19.80;;
74523;SDS011;63074;44.696;10.358;2022-12-18T10:37:17;39.28;;;19.77;;
74523;SDS011;63074;44.696;10.358;2022-12-18T10:39:46;42.40;;;21.65;;
74523;SDS011;63074;44.696;10.358;2022-12-18T10:42:32;35.30;;;18.83;;
74523;SDS011;63074;44.696;10.358;2022-12-18T10:45:03;38.13;;;19.60;;
74523;SDS011;63074;44.696;10.358;2022-12-18T10:47:50;38.33;;;21.02;;
74523;SDS011;63074;44.696;10.358;2022-12-18T10:50:32;40.75;;;21.58;;
74523;SDS011;63074;44.696;10.358;2022-12-18T10:53:02;39.17;;;19.63;;
74523;SDS011;63074;44.696;10.358;2022-12-18T10:55:37;42.58;;;21.85;;
74523;SDS011;63074;44.696;10.358;2022-12-18T11:01:01;41.05;;;19.98;;
74523;SDS011;63074;44.696;10.358;2022-12-18T11:03:35;42.50;;;20.98;;
74523;SDS011;63074;44.696;10.358;2022-12-18T11:06:09;42.17;;;20.45;;
74523;SDS011;63074;44.696;10.358;2022-12-18T11:08:44;42.38;;;20.67;;
74523;SDS011;63074;44.696;10.358;2022-12-18T11:11:23;45.50;;;23.27;;
74523;SDS011;63074;44.696;10.358;2022-12-18T11:14:06;45.20;;;22.77;;
74523;SDS011;63074;44.696;10.358;2022-12-18T11:16:46;43.75;;;21.15;;
74523;SDS011;63074;44.696;10.358;2022-12-18T11:22:50;44.72;;;20.92;;
74523;SDS011;63074;44.696;10.358;2022-12-18T11:27:21;43.35;;;22.63;;
74523;SDS011;63074;44.696;10.358;2022-12-18T11:29:49;41.45;;;21.13;;
74523;SDS011;63074;44.696;10.358;2022-12-18T11:34:56;41.25;;;23.25;;
74523;SDS011;63074;44.696;10.358;2022-12-18T11:37:29;43.17;;;22.15;;
74523;SDS011;63074;44.696;10.358;2022-12-18T11:40:00;45.47;;;21.33;;
74523;SDS011;63074;44.696;10.358;2022-12-18T11:42:48;43.08;;;21.60;;
74523;SDS011;63074;44.696;10.358;2022-12-18T11:45:26;43.08;;;21.35;;
74523;SDS011;63074;44.696;10.358;2022-12-18T11:50:59;43.50;;;19.58;;
74523;SDS011;63074;44.696;10.358;2022-12-18T11:53:28;41.35;;;20.98;;
74523;SDS011;63074;44.696;10.358;2022-12-18T11:58:43;42.65;;;22.25;;
74523;SDS011;63074;44.696;10.358;2022-12-18T12:04:36;41.33;;;21.48;;
74523;SDS011;63074;44.696;10.358;2022-12-18T12:09:33;42.97;;;20.55;;
74523;SDS011;63074;44.696;10.358;2022-12-18T12:15:28;40.92;;;20.35;;
74523;SDS011;63074;44.696;10.358;2022-12-18T12:26:28;41.67;;;21.33;;
74523;SDS011;63074;44.696;10.358;2022-12-18T12:35:23;40.08;;;19.98;;
74523;SDS011;63074;44.696;10.358;2022-12-18T12:40:34;39.78;;;21.40;;
74523;SDS011;63074;44.696;10.358;2022-12-18T12:48:34;40.85;;;20.20;;
74523;SDS011;63074;44.696;10.358;2022-12-18T12:51:12;40.70;;;21.50;;
74523;SDS011;63074;44.696;10.358;2022-12-18T12:53:46;38.55;;;19.83;;
74523;SDS011;63074;44.696;10.358;2022-12-18T12:56:14;39.63;;;20.30;;
74523;SDS011;63074;44.696;10.358;2022-12-18T13:01:40;39.78;;;21.08;;
74523;SDS011;63074;44.696;10.358;2022-12-18T13:13:14;42.65;;;19.63;;
74523;SDS011;63074;44.696;10.358;2022-12-18T13:15:41;41.65;;;20.60;;
74523;SDS011;63074;44.696;10.358;2022-12-18T13:18:20;42.80;;;21.10;;
74523;SDS011;63074;44.696;10.358;2022-12-18T13:25:57;39.92;;;20.20;;
74523;SDS011;63074;44.696;10.358;2022-12-18T13:34:21;36.67;;;19.27;;
74523;SDS011;63074;44.696;10.358;2022-12-18T13:36:53;39.90;;;20.60;;
74523;SDS011;63074;44.696;10.358;2022-12-18T13:39:24;40.53;;;19.25;;
74523;SDS011;63074;44.696;10.358;2022-12-18T13:47:25;44.50;;;20.73;;
74523;SDS011;63074;44.696;10.358;2022-12-18T13:49:56;43.10;;;21.63;;
74523;SDS011;63074;44.696;10.358;2022-12-18T13:52:33;40.75;;;20.20;;
74523;SDS011;63074;44.696;10.358;2022-12-18T13:55:04;38.83;;;19.42;;
74523;SDS011;63074;44.696;10.358;2022-12-18T13:57:39;38.15;;;20.25;;
74523;SDS011;63074;44.696;10.358;2022-12-18T14:00:25;40.80;;;20.13;;
74523;SDS011;63074;44.696;10.358;2022-12-18T14:02:53;40.63;;;20.42;;
74523;SDS011;63074;44.696;10.358;2022-12-18T14:05:33;37.03;;;19.67;;
74523;SDS011;63074;44.696;10.358;2022-12-18T14:08:03;37.40;;;19.45;;
74523;SDS011;63074;44.696;10.358;2022-12-18T14:10:33;41.38;;;19.23;;
74523;SDS011;63074;44.696;10.358;2022-12-18T14:13:06;39.60;;;19.52;;
74523;SDS011;63074;44.696;10.358;2022-12-18T14:15:35;37.42;;;18.15;;
74523;SDS011;63074;44.696;10.358;2022-12-18T14:20:57;38.97;;;19.33;;
74523;SDS011;63074;44.696;10.358;2022-12-18T14:23:35;39.50;;;20.02;;
74523;SDS011;63074;44.696;10.358;2022-12-18T14:28:53;37.10;;;18.33;;
74523;SDS011;63074;44.696;10.358;2022-12-18T14:31:42;41.65;;;19.38;;
74523;SDS011;63074;44.696;10.358;2022-12-18T14:34:14;37.10;;;17.30;;
74523;SDS011;63074;44.696;10.358;2022-12-18T14:36:42;39.65;;;18.95;;
74523;SDS011;63074;44.696;10.358;2022-12-18T14:39:19;32.90;;;16.75;;
74523;SDS011;63074;44.696;10.358;2022-12-18T14:41:46;35.47;;;18.80;;
74523;SDS011;63074;44.696;10.358;2022-12-18T14:44:14;35.92;;;18.95;;
74523;SDS011;63074;44.696;10.358;2022-12-18T14:46:44;41.72;;;17.88;;
74523;SDS011;63074;44.696;10.358;2022-12-18T14:49:31;39.42;;;20.20;;
74523;SDS011;63074;44.696;10.358;2022-12-18T14:52:03;37.47;;;19.70;;
74523;SDS011;63074;44.696;10.358;2022-12-18T14:54:31;41.67;;;20.38;;
74523;SDS011;63074;44.696;10.358;2022-12-18T14:59:28;35.97;;;17.88;;
74523;SDS011;63074;44.696;10.358;2022-12-18T15:04:40;40.60;;;20.40;;
74523;SDS011;63074;44.696;10.358;2022-12-18T15:09:44;38.53;;;18.45;;
74523;SDS011;63074;44.696;10.358;2022-12-18T15:17:58;41.25;;;19.67;;
74523;SDS011;63074;44.696;10.358;2022-12-18T15:20:27;44.00;;;20.80;;
74523;SDS011;63074;44.696;10.358;2022-12-18T15:22:58;43.00;;;20.50;;
74523;SDS011;63074;44.696;10.358;2022-12-18T15:25:27;48.70;;;29.02;;
74523;SDS011;63074;44.696;10.358;2022-12-18T15:27:59;40.72;;;21.85;;
74523;SDS011;63074;44.696;10.358;2022-12-18T15:30:25;47.22;;;21.55;;
74523;SDS011;63074;44.696;10.358;2022-12-18T15:32:52;44.70;;;21.63;;
74523;SDS011;63074;44.696;10.358;2022-12-18T15:35:45;39.50;;;21.05;;
74523;SDS011;63074;44.696;10.358;2022-12-18T15:38:11;42.05;;;21.23;;
74523;SDS011;63074;44.696;10.358;2022-12-18T15:40:38;41.08;;;21.92;;
74523;SDS011;63074;44.696;10.358;2022-12-18T15:43:04;49.55;;;23.23;;
74523;SDS011;63074;44.696;10.358;2022-12-18T15:45:52;47.33;;;25.75;;
74523;SDS011;63074;44.696;10.358;2022-12-18T15:48:21;65.75;;;31.85;;
74523;SDS011;63074;44.696;10.358;2022-12-18T15:50:51;55.13;;;28.48;;
74523;SDS011;63074;44.696;10.358;2022-12-18T15:53:21;45.92;;;22.63;;
74523;SDS011;63074;44.696;10.358;2022-12-18T15:55:53;44.65;;;21.85;;
74523;SDS011;63074;44.696;10.358;2022-12-18T15:58:37;47.05;;;21.75;;
74523;SDS011;63074;44.696;10.358;2022-12-18T16:01:04;44.05;;;23.00;;
74523;SDS011;63074;44.696;10.358;2022-12-18T16:03:30;51.22;;;27.00;;
74523;SDS011;63074;44.696;10.358;2022-12-18T16:05:56;52.60;;;24.48;;
74523;SDS011;63074;44.696;10.358;2022-12-18T16:08:25;51.22;;;26.90;;
74523;SDS011;63074;44.696;10.358;2022-12-18T16:10:51;52.03;;;26.38;;
74523;SDS011;63074;44.696;10.358;2022-12-18T16:13:18;48.15;;;24.75;;
74523;SDS011;63074;44.696;10.358;2022-12-18T16:15:45;44.88;;;23.30;;
74523;SDS011;63074;44.696;10.358;2022-12-18T16:18:11;46.47;;;23.45;;
74523;SDS011;63074;44.696;10.358;2022-12-18T16:20:38;50.05;;;25.27;;
74523;SDS011;63074;44.696;10.358;2022-12-18T16:23:04;44.30;;;24.27;;
74523;SDS011;63074;44.696;10.358;2022-12-18T16:25:31;51.65;;;25.48;;
74523;SDS011;63074;44.696;10.358;2022-12-18T16:27:57;50.95;;;27.42;;
74523;SDS011;63074;44.696;10.358;2022-12-18T16:30:25;50.55;;;27.10;;
74523;SDS011;63074;44.696;10.358;2022-12-18T16:33:02;49.83;;;25.50;;
74523;SDS011;63074;44.696;10.358;2022-12-18T16:35:28;51.38;;;24.63;;
74523;SDS011;63074;44.696;10.358;2022-12-18T16:37:54;45.00;;;23.58;;
74523;SDS011;63074;44.696;10.358;2022-12-18T16:40:20;47.70;;;24.25;;
74523;SDS011;63074;44.696;10.358;2022-12-18T16:42:46;54.90;;;27.77;;
74523;SDS011;63074;44.696;10.358;2022-12-18T16:45:14;58.13;;;28.40;;
74523;SDS011;63074;44.696;10.358;2022-12-18T16:47:42;46.85;;;26.30;;
74523;SDS011;63074;44.696;10.358;2022-12-18T16:50:09;46.03;;;23.83;;